McFarlan, North Carolina
Current Conditions -  °F | °C
As of 4:35 PM on Wednesday 26 Nov 2014 (Local Time) from KCQW Reporting Station
Broken Clouds Broken Clouds  
Wind Chill: 48°   Ceiling: 3200
Heat Index: 48°   Visibility: 10mi
Dew Point: 45°   Wind: 0mph
Humidity: 87%   Direction: NA
Pressure: 30.02"   Gusts: NA
Location:  34.81°N, 79.98°W
Report Text: KCQW 262135Z AUTO 00000KT 10SM BKN032 09/07 A3002 RMK AO2
Loading
Personal Weather Stations






























Interactive Weather Map New forecast layout! Learn more

10-Day Weather Forecast

Advertisements
Track Severe Weather on mobile